Дата Пункты Температура Давл., мм. Влажн., % Ветер Погодные явления
Воздуха Воды Направл. Скорость
05.07.18 03:00 Одесса 19.0 21.0 756 84 З 2 03 ЧАСА
04.07.18 09:00 Одесса 22.0 21.0 756 56 Ю-З 2 21 ЧАС
04.07.18 06:00 Одесса 24.0 21.0 757 54 Ю 2 18 ЧАСОВ
04.07.18 03:00 Одесса 25.0 21.0 757 53 Ю 5 15 ЧАСОВ
04.07.18 12:00 Одесса 25.0 21.0 758 47 Ю-В 2 12 ЧАСОВ
04.07.18 09:00 Одесса 23.0 21.0 759 65 С-В 2 09 ЧАСОВ
04.07.18 06:00 Одесса 16.0 20.0 759 88 С 0 06 ЧАСОВ
04.07.18 03:00 Одесса 16.0 20.0 759 85 С 0 03 ЧАСА
03.07.18 06:00 Одесса 21.0 20.0 758 80 Ю-В 3 18 ЧАСОВ
03.07.18 03:00 Одесса 21.0 20.0 758 77 Ю-В 5 15 ЧАСОВ
03.07.18 12:00 Одесса 20.0 20.0 759 77 Ю-В 3 12 ЧАСОВ
03.07.18 09:00 Одесса 22.0 20.0 759 74 Ю-В 6 09 ЧАСОВ
03.07.18 06:00 Одесса 20.0 21.0 758 74 В 4 06 ЧАСОВ
03.07.18 03:00 Одесса 19.0 21.0 759 81 С-В 2 03 ЧАСА
02.07.18 09:00 Одесса 21.0 21.0 758 72 Ю-З 1 21 ЧАС
02.07.18 06:00 Одесса 22.0 21.0 758 59 Ю 3 18 ЧАСОВ
02.07.18 03:00 Одесса 22.0 21.0 758 60 Ю 4 15 ЧАСОВ
02.07.18 12:00 Одесса 21.0 21.0 758 64 В 2 12 ЧАСОВ
02.07.18 09:00 Одесса 22.0 21.0 758 59 Ю-В 1 09 ЧАСОВ
02.07.18 06:00 Одесса 15.0 21.0 758 88 З 1 06 ЧАСОВ
Количество строк
1 2 3 4 5 6 7 8 9 10
Page 5 of 382